createdAt,value
2023-03-26T00:00:21.030Z,997
2023-03-26T00:15:19.943Z,997.2
2023-03-26T00:30:19.903Z,997.4
2023-03-26T00:45:19.522Z,997.7
2023-03-26T01:00:19.983Z,997.7
2023-03-26T01:15:19.130Z,997.8
2023-03-26T01:30:20.219Z,998
2023-03-26T01:45:19.555Z,998.1
2023-03-26T02:00:18.742Z,998.3
2023-03-26T02:15:19.767Z,998.4
2023-03-26T02:30:19.846Z,998.3
2023-03-26T02:45:18.975Z,998.3
2023-03-26T03:00:19.896Z,998.5
2023-03-26T03:15:19.480Z,998.4
2023-03-26T03:30:19.536Z,998.4
2023-03-26T03:45:19.399Z,998.5
2023-03-26T04:02:27.152Z,998.4
2023-03-26T04:15:19.387Z,998.4
2023-03-26T04:30:18.830Z,998.5
2023-03-26T04:45:19.469Z,998.4
2023-03-26T05:00:19.644Z,998.5
2023-03-26T05:15:23.483Z,998.5
2023-03-26T05:30:18.863Z,998.5
2023-03-26T05:45:19.350Z,998.5
2023-03-26T06:00:19.535Z,998.7
2023-03-26T06:15:19.291Z,998.8
2023-03-26T06:30:19.448Z,998.9
2023-03-26T06:45:18.664Z,999
2023-03-26T07:00:19.318Z,999.1
2023-03-26T07:15:19.837Z,999.2
2023-03-26T07:30:18.991Z,999.1
2023-03-26T07:45:18.831Z,999.1
2023-03-26T08:00:18.850Z,999.3
2023-03-26T08:15:19.502Z,999.2
2023-03-26T08:30:28.953Z,999.3
2023-03-26T08:45:18.652Z,999.2
2023-03-26T09:00:18.914Z,999.3
2023-03-26T09:15:19.264Z,999.2
2023-03-26T09:30:19.365Z,999.1
2023-03-26T09:45:18.902Z,999.2
2023-03-26T10:00:18.712Z,999.3
2023-03-26T10:15:19.239Z,999.3
2023-03-26T10:30:19.282Z,999.4
2023-03-26T10:45:19.329Z,999.3
2023-03-26T11:00:18.784Z,999.4
2023-03-26T11:15:18.907Z,999.4
2023-03-26T11:30:19.360Z,999.5
2023-03-26T11:45:19.399Z,999.4
2023-03-26T12:00:20.717Z,999.5
2023-03-26T12:15:19.506Z,999.4
2023-03-26T12:30:18.640Z,999.3
2023-03-26T12:45:19.530Z,999.3
2023-03-26T13:00:19.025Z,999.2
2023-03-26T13:15:19.145Z,999.2
2023-03-26T13:30:18.972Z,999.2
2023-03-26T13:45:19.122Z,999.1
2023-03-26T14:00:18.829Z,999.1
2023-03-26T14:15:18.751Z,999.1
2023-03-26T14:30:19.713Z,999.3
2023-03-26T14:45:19.715Z,999.3
2023-03-26T15:00:19.045Z,999.3
2023-03-26T15:15:29.735Z,999.4
2023-03-26T15:30:19.257Z,999.4
2023-03-26T15:45:18.798Z,999.5
2023-03-26T16:00:19.008Z,999.7
2023-03-26T16:15:18.910Z,999.7
2023-03-26T16:30:21.106Z,999.7
2023-03-26T16:45:25.294Z,999.9
2023-03-26T17:00:19.198Z,1000
2023-03-26T17:15:18.886Z,1000.2
2023-03-26T17:30:18.715Z,1000.4
2023-03-26T17:45:18.772Z,1000.6
2023-03-26T18:00:19.244Z,1000.8
2023-03-26T18:15:19.363Z,1001
2023-03-26T18:31:15.043Z,1001.3
2023-03-26T18:45:28.565Z,1001.5
2023-03-26T19:00:28.739Z,1001.8
2023-03-26T19:15:27.717Z,1002
2023-03-26T19:30:28.457Z,1002.1
2023-03-26T19:45:28.261Z,1002.3
2023-03-26T20:00:27.587Z,1002.6
2023-03-26T20:15:27.950Z,1002.7
2023-03-26T20:30:37.366Z,1002.8
2023-03-26T20:45:28.206Z,1003
2023-03-26T21:00:28.158Z,1003.2
2023-03-26T21:15:34.859Z,1003.3
2023-03-26T21:30:28.211Z,1003.5
2023-03-26T21:45:27.955Z,1003.7
2023-03-26T22:00:43.209Z,1003.9
2023-03-26T22:15:27.977Z,1004.1
2023-03-26T22:30:28.019Z,1004.2
2023-03-26T22:45:27.803Z,1004.4
2023-03-26T23:00:28.607Z,1004.6
2023-03-26T23:15:27.732Z,1004.8
2023-03-26T23:30:27.849Z,1005
2023-03-26T23:45:28.170Z,1005.1
